createdAt,value
2022-10-26T00:01:06.763Z,8.54
2022-10-26T00:03:35.325Z,8.52
2022-10-26T00:06:10.213Z,8.50
2022-10-26T00:08:37.180Z,8.48
2022-10-26T00:11:04.703Z,8.46
2022-10-26T00:13:31.252Z,8.45
2022-10-26T00:15:57.740Z,8.43
2022-10-26T00:18:24.649Z,8.41
2022-10-26T00:20:51.589Z,8.40
2022-10-26T00:23:18.079Z,8.39
2022-10-26T00:25:45.182Z,8.37
2022-10-26T00:28:11.621Z,8.36
2022-10-26T00:30:41.023Z,8.35
2022-10-26T00:33:12.793Z,8.33
2022-10-26T00:35:45.928Z,8.32
2022-10-26T00:38:13.153Z,8.31
2022-10-26T00:40:39.595Z,8.31
2022-10-26T00:43:29.086Z,8.31
2022-10-26T00:45:58.885Z,8.31
2022-10-26T00:48:28.813Z,8.31
2022-10-26T00:50:58.808Z,8.31
2022-10-26T00:53:25.674Z,8.32
2022-10-26T00:55:53.745Z,8.34
2022-10-26T00:58:21.509Z,8.35
2022-10-26T01:00:49.026Z,8.34
2022-10-26T01:03:15.746Z,8.32
2022-10-26T01:05:45.593Z,8.31
2022-10-26T01:08:14.181Z,8.29
2022-10-26T01:10:42.827Z,8.26
2022-10-26T01:13:10.771Z,8.24
2022-10-26T01:15:57.502Z,8.21
2022-10-26T01:18:33.087Z,8.20
2022-10-26T01:21:28.929Z,8.20
2022-10-26T01:24:08.292Z,8.18
2022-10-26T01:26:59.506Z,8.15
2022-10-26T01:29:55.734Z,8.15
2022-10-26T01:32:44.068Z,8.14
2022-10-26T01:35:15.428Z,8.15
2022-10-26T01:37:48.139Z,8.15
2022-10-26T01:40:14.870Z,8.14
2022-10-26T01:42:44.936Z,8.14
2022-10-26T01:45:14.847Z,8.14
2022-10-26T01:47:41.998Z,8.13
2022-10-26T01:50:11.063Z,8.13
2022-10-26T01:52:37.739Z,8.10
2022-10-26T01:55:39.186Z,8.09
2022-10-26T01:58:31.754Z,8.08
2022-10-26T02:01:34.338Z,8.08
2022-10-26T02:04:10.165Z,8.08
2022-10-26T02:06:49.460Z,8.10
2022-10-26T02:09:41.929Z,8.09
2022-10-26T02:12:21.551Z,8.09
2022-10-26T02:14:51.045Z,8.10
2022-10-26T02:17:27.918Z,8.12
2022-10-26T02:20:05.499Z,8.12
2022-10-26T02:22:34.312Z,8.13
2022-10-26T02:25:07.784Z,8.14
2022-10-26T02:27:40.431Z,8.15
2022-10-26T02:30:08.805Z,8.17
2022-10-26T02:32:40.973Z,8.21
2022-10-26T02:35:07.662Z,8.24
2022-10-26T02:37:36.957Z,8.28
2022-10-26T02:40:09.544Z,8.32
2022-10-26T02:42:37.962Z,8.36
2022-10-26T02:45:10.044Z,8.39
2022-10-26T02:47:36.547Z,8.42
2022-10-26T02:50:03.619Z,8.43
2022-10-26T02:52:48.684Z,8.45
2022-10-26T02:55:22.184Z,8.46
2022-10-26T02:57:54.976Z,8.50
2022-10-26T03:00:21.467Z,8.54
2022-10-26T03:02:57.444Z,8.59
2022-10-26T03:05:30.164Z,8.65
2022-10-26T03:07:56.927Z,8.70
2022-10-26T03:10:23.412Z,8.76
2022-10-26T03:12:50.207Z,8.83
2022-10-26T03:15:16.923Z,8.88
2022-10-26T03:17:43.922Z,8.93
2022-10-26T03:20:11.074Z,8.98
2022-10-26T03:22:37.447Z,9.03
2022-10-26T03:25:04.608Z,9.07
2022-10-26T03:27:31.475Z,9.10
2022-10-26T03:29:57.864Z,9.13
2022-10-26T03:32:24.369Z,9.14
2022-10-26T03:34:50.926Z,9.14
2022-10-26T03:37:17.365Z,9.13
2022-10-26T03:39:43.807Z,9.13
2022-10-26T03:42:10.226Z,9.11
2022-10-26T03:44:36.601Z,9.09
2022-10-26T03:47:03.107Z,9.08
2022-10-26T03:49:29.497Z,9.07
2022-10-26T03:51:55.900Z,9.04
2022-10-26T03:54:22.338Z,9.02
2022-10-26T03:56:52.676Z,8.99
2022-10-26T03:59:21.704Z,8.95
2022-10-26T04:01:48.175Z,8.93
2022-10-26T04:04:14.759Z,8.91
2022-10-26T04:06:41.387Z,8.89
2022-10-26T04:09:08.320Z,8.88
2022-10-26T04:11:34.827Z,8.86
2022-10-26T04:14:01.293Z,8.85
2022-10-26T04:16:31.054Z,8.83
2022-10-26T04:19:00.051Z,8.80
2022-10-26T04:21:26.479Z,8.78
2022-10-26T04:23:52.929Z,8.76
2022-10-26T04:26:19.345Z,8.73
2022-10-26T04:28:45.820Z,8.72
2022-10-26T04:31:12.366Z,8.70
2022-10-26T04:33:38.787Z,8.68
2022-10-26T04:36:05.532Z,8.66
2022-10-26T04:38:32.010Z,8.64
2022-10-26T04:40:58.411Z,8.63
2022-10-26T04:43:24.895Z,8.62
2022-10-26T04:45:55.511Z,8.61
2022-10-26T04:48:22.306Z,8.61
2022-10-26T04:50:48.819Z,8.63
2022-10-26T04:53:15.259Z,8.66
2022-10-26T04:55:42.102Z,8.71
2022-10-26T04:58:08.512Z,8.72
2022-10-26T05:00:35.030Z,8.75
2022-10-26T05:03:03.426Z,8.75
2022-10-26T05:05:31.975Z,8.78
2022-10-26T05:07:58.683Z,8.78
2022-10-26T05:10:26.027Z,8.78
2022-10-26T05:13:00.144Z,8.77
2022-10-26T05:15:32.297Z,8.76
2022-10-26T05:18:15.080Z,8.76
2022-10-26T05:20:41.505Z,8.75
2022-10-26T05:23:11.512Z,8.74
2022-10-26T05:25:38.733Z,8.70
2022-10-26T05:28:08.506Z,8.65
2022-10-26T05:30:35.272Z,8.59
2022-10-26T05:33:03.391Z,8.52
2022-10-26T05:35:31.116Z,8.46
2022-10-26T05:37:58.022Z,8.41
2022-10-26T05:40:25.365Z,8.38
2022-10-26T05:42:52.176Z,8.34
2022-10-26T05:45:18.971Z,8.30
2022-10-26T05:47:46.568Z,8.26
2022-10-26T05:50:13.826Z,8.22
2022-10-26T05:52:44.572Z,8.17
2022-10-26T05:55:14.937Z,8.13
2022-10-26T05:57:42.409Z,8.11
2022-10-26T06:00:11.235Z,8.09
2022-10-26T06:02:55.134Z,8.08
2022-10-26T06:05:26.318Z,8.09
2022-10-26T06:07:53.357Z,8.11
2022-10-26T06:10:20.443Z,8.12
2022-10-26T06:12:47.477Z,8.14
2022-10-26T06:15:20.998Z,8.16
2022-10-26T06:18:17.504Z,8.19
2022-10-26T06:20:51.699Z,8.20
2022-10-26T06:23:36.915Z,8.21
2022-10-26T06:26:21.166Z,8.22
2022-10-26T06:28:57.497Z,8.25
2022-10-26T06:31:23.974Z,8.26
2022-10-26T06:33:55.408Z,8.27
2022-10-26T06:36:23.438Z,8.29
2022-10-26T06:38:58.398Z,8.31
2022-10-26T06:41:26.361Z,8.33
2022-10-26T06:43:53.161Z,8.33
2022-10-26T06:46:48.509Z,8.34
2022-10-26T06:49:22.284Z,8.38
2022-10-26T06:51:58.952Z,8.42
2022-10-26T06:54:52.578Z,8.47
2022-10-26T06:57:21.565Z,8.55
2022-10-26T06:59:54.069Z,8.64
2022-10-26T07:02:21.093Z,8.72
2022-10-26T07:04:47.943Z,8.81
2022-10-26T07:07:18.221Z,8.87
2022-10-26T07:09:44.606Z,8.96
2022-10-26T07:12:14.382Z,9.06
2022-10-26T07:14:40.988Z,9.17
2022-10-26T07:17:09.195Z,9.29
2022-10-26T07:19:35.953Z,9.37
2022-10-26T07:22:02.854Z,9.46
2022-10-26T07:24:29.926Z,9.56
2022-10-26T07:26:57.926Z,9.67
2022-10-26T07:29:26.404Z,9.80
2022-10-26T07:34:20.992Z,10.12
2022-10-26T07:36:47.415Z,10.30
2022-10-26T07:39:13.832Z,10.45
2022-10-26T07:41:40.308Z,10.61
2022-10-26T07:44:06.865Z,10.73
2022-10-26T07:46:33.317Z,10.87
2022-10-26T07:48:59.732Z,11.01
2022-10-26T07:51:26.098Z,11.15
2022-10-26T07:53:52.922Z,11.28
2022-10-26T07:56:19.355Z,11.41
2022-10-26T07:58:45.837Z,11.54
2022-10-26T08:01:14.902Z,11.66
2022-10-26T08:03:42.106Z,11.79
2022-10-26T08:06:10.630Z,11.92
2022-10-26T08:08:37.636Z,12.05
2022-10-26T08:11:05.418Z,12.17
2022-10-26T08:13:32.393Z,12.28
2022-10-26T08:16:00.773Z,12.39
2022-10-26T08:18:27.793Z,12.49
2022-10-26T08:21:01.768Z,12.60
2022-10-26T08:23:36.676Z,12.74
2022-10-26T08:26:04.062Z,12.86
2022-10-26T08:28:30.837Z,12.93
2022-10-26T08:30:57.651Z,12.99
2022-10-26T08:33:24.654Z,13.03
2022-10-26T08:36:05.539Z,13.06
2022-10-26T08:38:34.015Z,13.12
2022-10-26T08:41:08.780Z,13.17
2022-10-26T08:43:42.551Z,13.21
2022-10-26T08:46:16.362Z,13.24
2022-10-26T08:48:56.048Z,13.30
2022-10-26T08:51:27.479Z,13.36
2022-10-26T08:54:05.860Z,13.44
2022-10-26T08:56:49.993Z,13.53
2022-10-26T08:59:30.364Z,13.59
2022-10-26T09:01:56.811Z,13.67
2022-10-26T09:04:28.255Z,13.71
2022-10-26T09:07:29.147Z,13.79
2022-10-26T09:10:08.211Z,13.90
2022-10-26T09:12:58.361Z,14.00
2022-10-26T09:15:31.102Z,14.09
2022-10-26T09:18:12.056Z,14.18
2022-10-26T09:21:08.806Z,14.27
2022-10-26T09:23:53.155Z,14.31
2022-10-26T09:26:31.745Z,14.35
2022-10-26T09:29:02.799Z,14.41
2022-10-26T09:31:32.816Z,14.51
2022-10-26T09:34:02.334Z,14.63
2022-10-26T09:36:29.093Z,14.78
2022-10-26T09:39:10.613Z,14.95
2022-10-26T09:41:47.675Z,15.07
2022-10-26T09:44:27.272Z,15.16
2022-10-26T09:47:21.871Z,15.32
2022-10-26T09:49:54.821Z,15.51
2022-10-26T09:52:21.729Z,15.62
2022-10-26T09:54:48.158Z,15.71
2022-10-26T09:57:18.667Z,15.83
2022-10-26T09:59:47.877Z,16.00
2022-10-26T10:02:47.234Z,16.21
2022-10-26T10:05:51.175Z,16.43
2022-10-26T10:08:26.288Z,16.65
2022-10-26T10:11:11.210Z,16.81
2022-10-26T10:13:40.916Z,16.99
2022-10-26T10:16:12.511Z,17.12
2022-10-26T10:18:41.945Z,17.29
2022-10-26T10:21:10.162Z,17.43
2022-10-26T10:23:48.943Z,17.55
2022-10-26T10:26:15.419Z,17.56
2022-10-26T10:28:44.972Z,17.57
2022-10-26T10:31:23.531Z,17.58
2022-10-26T10:33:50.035Z,17.65
2022-10-26T10:36:19.953Z,17.67
2022-10-26T10:38:48.947Z,17.71
2022-10-26T10:41:31.081Z,17.77
2022-10-26T10:44:09.101Z,17.86
2022-10-26T10:46:37.754Z,17.94
2022-10-26T10:49:07.019Z,18.02
2022-10-26T10:51:39.798Z,18.12
2022-10-26T10:54:21.530Z,18.22
2022-10-26T10:56:52.416Z,18.32
2022-10-26T10:59:37.919Z,18.34
2022-10-26T11:05:42.847Z,18.47
2022-10-26T11:08:15.649Z,18.44
2022-10-26T11:10:52.326Z,18.37
2022-10-26T11:13:31.444Z,18.29
2022-10-26T11:16:03.782Z,18.21
2022-10-26T11:18:39.559Z,18.13
2022-10-26T11:21:37.761Z,18.09
2022-10-26T11:24:11.341Z,18.11
2022-10-26T11:26:55.536Z,18.18
2022-10-26T11:29:51.287Z,18.24
2022-10-26T11:32:25.682Z,18.36
2022-10-26T11:35:04.544Z,18.46
2022-10-26T11:38:02.285Z,18.57
2022-10-26T11:40:40.226Z,18.75
2022-10-26T11:43:46.184Z,19.08
2022-10-26T11:46:22.354Z,19.50
2022-10-26T11:49:24.487Z,19.77
2022-10-26T11:51:58.317Z,20.03
2022-10-26T11:54:32.423Z,20.25
2022-10-26T11:57:00.380Z,20.57
2022-10-26T11:59:33.136Z,20.88
2022-10-26T12:02:14.140Z,21.12
2022-10-26T12:04:43.411Z,21.34
2022-10-26T12:07:16.832Z,21.53
2022-10-26T12:09:45.372Z,21.74
2022-10-26T12:12:37.866Z,21.96
2022-10-26T12:15:35.190Z,22.70
2022-10-26T12:18:36.832Z,23.16
2022-10-26T12:21:09.831Z,23.43
2022-10-26T12:23:58.029Z,23.54
2022-10-26T12:26:24.334Z,23.64
2022-10-26T12:29:03.154Z,23.96
2022-10-26T12:31:33.116Z,24.13
2022-10-26T12:34:00.623Z,24.25
2022-10-26T12:36:49.086Z,24.64
2022-10-26T12:39:42.655Z,24.72
2022-10-26T12:42:08.982Z,24.24
2022-10-26T12:44:58.087Z,23.82
2022-10-26T12:47:30.672Z,23.38
2022-10-26T12:50:06.176Z,23.24
2022-10-26T12:52:54.644Z,23.21
2022-10-26T12:55:46.691Z,23.03
2022-10-26T12:58:53.860Z,22.73
2022-10-26T13:04:55.335Z,22.15
2022-10-26T13:07:37.724Z,21.94
2022-10-26T13:10:11.807Z,21.73
2022-10-26T13:12:55.512Z,21.59
2022-10-26T13:15:28.918Z,21.53
2022-10-26T13:18:02.803Z,21.60
2022-10-26T13:20:31.411Z,22.32
2022-10-26T13:22:58.143Z,23.75
2022-10-26T13:25:30.300Z,25.39
2022-10-26T13:28:27.667Z,27.05
2022-10-26T13:30:54.091Z,28.03
2022-10-26T13:33:24.435Z,28.51
2022-10-26T13:35:55.004Z,28.32
2022-10-26T13:38:25.202Z,27.93
2022-10-26T13:40:56.168Z,27.97
2022-10-26T13:43:25.268Z,28.79
2022-10-26T13:45:58.698Z,29.43
2022-10-26T13:48:37.859Z,29.75
2022-10-26T13:51:23.170Z,30.20
2022-10-26T13:54:01.217Z,30.39
2022-10-26T13:56:35.507Z,30.50
2022-10-26T13:59:04.970Z,30.35
2022-10-26T14:01:32.230Z,30.60
2022-10-26T14:03:58.810Z,30.83
2022-10-26T14:06:32.426Z,31.43
2022-10-26T14:09:03.106Z,32.13
2022-10-26T14:11:36.001Z,32.82
2022-10-26T14:14:04.544Z,32.97
2022-10-26T14:16:33.899Z,32.93
2022-10-26T14:19:00.610Z,32.16
2022-10-26T14:21:27.359Z,30.79
2022-10-26T14:23:57.059Z,29.42
2022-10-26T14:26:26.033Z,28.14
2022-10-26T14:28:58.779Z,27.20
2022-10-26T14:31:29.376Z,26.78
2022-10-26T14:33:57.779Z,26.78
2022-10-26T14:36:49.864Z,26.74
2022-10-26T14:39:36.710Z,26.17
2022-10-26T14:42:19.625Z,25.41
2022-10-26T14:44:46.028Z,24.66
2022-10-26T14:47:19.338Z,24.34
2022-10-26T14:49:46.563Z,24.13
2022-10-26T14:52:21.183Z,23.87
2022-10-26T14:54:59.144Z,23.65
2022-10-26T14:57:38.240Z,23.62
2022-10-26T15:00:19.128Z,23.51
2022-10-26T15:02:51.338Z,23.19
2022-10-26T15:05:34.655Z,22.98
2022-10-26T15:08:03.269Z,22.83
2022-10-26T15:10:38.655Z,22.74
2022-10-26T15:13:31.779Z,22.78
2022-10-26T15:16:16.696Z,22.66
2022-10-26T15:18:54.478Z,22.41
2022-10-26T15:21:23.833Z,22.03
2022-10-26T15:23:52.373Z,21.78
2022-10-26T15:26:19.067Z,21.49
2022-10-26T15:28:47.183Z,21.24
2022-10-26T15:31:14.582Z,20.94
2022-10-26T15:33:43.759Z,20.64
2022-10-26T15:36:24.448Z,20.37
2022-10-26T15:38:53.729Z,20.13
2022-10-26T15:41:26.659Z,19.89
2022-10-26T15:43:58.033Z,19.65
2022-10-26T15:46:29.243Z,19.40
2022-10-26T15:48:57.891Z,19.14
2022-10-26T15:51:24.609Z,18.90
2022-10-26T15:53:51.785Z,18.66
2022-10-26T15:56:21.150Z,18.46
2022-10-26T15:58:47.677Z,18.28
2022-10-26T16:01:23.572Z,18.12
2022-10-26T16:03:55.309Z,17.91
2022-10-26T16:06:30.990Z,17.71
2022-10-26T16:09:00.327Z,17.52
2022-10-26T16:11:26.781Z,17.36
2022-10-26T16:13:54.499Z,17.22
2022-10-26T16:16:22.735Z,17.09
2022-10-26T16:19:06.143Z,16.94
2022-10-26T16:21:41.817Z,16.79
2022-10-26T16:24:09.430Z,16.64
2022-10-26T16:26:35.868Z,16.50
2022-10-26T16:29:02.271Z,16.38
2022-10-26T16:31:28.704Z,16.25
2022-10-26T16:33:55.530Z,16.13
2022-10-26T16:36:23.560Z,16.01
2022-10-26T16:38:49.974Z,15.91
2022-10-26T16:41:19.836Z,15.82
2022-10-26T16:43:47.071Z,15.74
2022-10-26T16:46:18.989Z,15.66
2022-10-26T16:48:47.301Z,15.58
2022-10-26T16:51:22.934Z,15.50
2022-10-26T16:54:00.920Z,15.40
2022-10-26T16:56:29.843Z,15.31
2022-10-26T16:58:57.098Z,15.22
2022-10-26T17:01:23.789Z,15.13
2022-10-26T17:03:51.878Z,15.04
2022-10-26T17:06:19.042Z,14.95
2022-10-26T17:08:46.002Z,14.86
2022-10-26T17:11:18.611Z,14.77
2022-10-26T17:13:46.191Z,14.70
2022-10-26T17:16:21.088Z,14.64
2022-10-26T17:18:48.325Z,14.59
2022-10-26T17:21:16.702Z,14.52
2022-10-26T17:23:43.106Z,14.46
2022-10-26T17:26:11.918Z,14.42
2022-10-26T17:28:38.829Z,14.36
2022-10-26T17:31:15.911Z,14.32
2022-10-26T17:33:44.101Z,14.25
2022-10-26T17:36:12.880Z,14.19
2022-10-26T17:38:41.260Z,14.16
2022-10-26T17:41:13.150Z,14.14
2022-10-26T17:43:40.887Z,14.12
2022-10-26T17:46:10.602Z,14.11
2022-10-26T17:48:37.765Z,14.09
2022-10-26T17:51:07.797Z,14.05
2022-10-26T17:53:34.171Z,14.03
2022-10-26T17:56:06.151Z,14.01
2022-10-26T17:58:33.896Z,13.98
2022-10-26T18:01:06.228Z,13.97
2022-10-26T18:03:33.947Z,13.94
2022-10-26T18:06:00.687Z,13.92
2022-10-26T18:08:30.626Z,13.88
2022-10-26T18:10:58.305Z,13.84
2022-10-26T18:13:27.381Z,13.81
2022-10-26T18:15:53.747Z,13.77
2022-10-26T18:18:20.231Z,13.73
2022-10-26T18:20:46.609Z,13.69
2022-10-26T18:23:12.978Z,13.67
2022-10-26T18:25:39.346Z,13.65
2022-10-26T18:28:05.760Z,13.62
2022-10-26T18:30:33.877Z,13.61
2022-10-26T18:33:00.230Z,13.60
2022-10-26T18:35:26.676Z,13.60
2022-10-26T18:37:53.404Z,13.60
2022-10-26T18:40:20.196Z,13.60
2022-10-26T18:42:46.643Z,13.61
2022-10-26T18:45:13.085Z,13.63
2022-10-26T18:47:39.494Z,13.65
2022-10-26T18:50:06.297Z,13.67
2022-10-26T18:52:32.732Z,13.71
2022-10-26T18:54:59.099Z,13.74
2022-10-26T18:57:27.110Z,13.77
2022-10-26T18:59:55.057Z,13.81
2022-10-26T19:02:23.157Z,13.85
2022-10-26T19:04:51.636Z,13.91
2022-10-26T19:07:18.529Z,13.95
2022-10-26T19:09:44.939Z,13.98
2022-10-26T19:12:11.308Z,14.01
2022-10-26T19:14:38.056Z,14.03
2022-10-26T19:17:04.513Z,14.05
2022-10-26T19:19:30.881Z,14.06
2022-10-26T19:21:59.293Z,14.07
2022-10-26T19:24:25.794Z,14.07
2022-10-26T19:26:54.145Z,14.07
2022-10-26T19:29:21.288Z,14.06
2022-10-26T19:31:51.675Z,14.06
2022-10-26T19:34:18.655Z,14.04
2022-10-26T19:36:46.852Z,14.01
2022-10-26T19:39:15.378Z,13.97
2022-10-26T19:41:42.248Z,13.92
2022-10-26T19:44:10.833Z,13.88
2022-10-26T19:46:38.033Z,13.84
2022-10-26T19:49:04.371Z,13.80
2022-10-26T19:51:31.624Z,13.76
2022-10-26T19:54:07.147Z,13.71
2022-10-26T19:56:35.538Z,13.66
2022-10-26T19:59:02.145Z,13.62
2022-10-26T20:01:28.596Z,13.58
2022-10-26T20:03:55.064Z,13.54
2022-10-26T20:06:21.425Z,13.50
2022-10-26T20:08:49.237Z,13.46
2022-10-26T20:11:17.691Z,13.42
2022-10-26T20:13:46.239Z,13.38
2022-10-26T20:16:13.765Z,13.35
2022-10-26T20:18:44.001Z,13.32
2022-10-26T20:21:15.056Z,13.30
2022-10-26T20:23:41.623Z,13.28
2022-10-26T20:26:08.745Z,13.25
2022-10-26T20:28:35.259Z,13.24
2022-10-26T20:31:01.665Z,13.22
2022-10-26T20:33:28.081Z,13.21
2022-10-26T20:35:58.695Z,13.20
2022-10-26T20:38:25.548Z,13.18
2022-10-26T20:40:57.552Z,13.17
2022-10-26T20:43:26.203Z,13.16
2022-10-26T20:45:53.365Z,13.16
2022-10-26T20:48:20.442Z,13.15
2022-10-26T20:50:53.539Z,13.15
2022-10-26T20:53:28.462Z,13.14
2022-10-26T20:55:58.441Z,13.14
2022-10-26T20:58:37.051Z,13.13
2022-10-26T21:01:07.367Z,13.11
2022-10-26T21:03:34.080Z,13.09
2022-10-26T21:06:00.458Z,13.09
2022-10-26T21:08:26.832Z,13.09
2022-10-26T21:10:53.320Z,13.09
2022-10-26T21:13:19.690Z,13.10
2022-10-26T21:15:46.053Z,13.12
2022-10-26T21:18:12.791Z,13.15
2022-10-26T21:20:39.345Z,13.19
2022-10-26T21:23:05.690Z,13.23
2022-10-26T21:25:32.044Z,13.30
2022-10-26T21:27:58.806Z,13.36
2022-10-26T21:30:25.705Z,13.41
2022-10-26T21:32:53.439Z,13.48
2022-10-26T21:35:20.418Z,13.52
2022-10-26T21:37:47.197Z,13.56
2022-10-26T21:40:14.858Z,13.57
2022-10-26T21:42:41.547Z,13.59
2022-10-26T21:45:08.523Z,13.58
2022-10-26T21:47:34.895Z,13.57
2022-10-26T21:50:01.438Z,13.55
2022-10-26T21:52:28.763Z,13.52
2022-10-26T21:54:55.169Z,13.49
2022-10-26T21:57:21.583Z,13.45
2022-10-26T21:59:48.000Z,13.41
2022-10-26T22:02:14.420Z,13.38
2022-10-26T22:04:40.899Z,13.34
2022-10-26T22:07:07.249Z,13.33
2022-10-26T22:09:40.600Z,13.33
2022-10-26T22:12:16.281Z,13.30
2022-10-26T22:14:42.753Z,13.27
2022-10-26T22:17:09.259Z,13.22
2022-10-26T22:19:35.650Z,13.17
2022-10-26T22:22:02.091Z,13.11
2022-10-26T22:24:28.470Z,13.07
2022-10-26T22:26:54.865Z,13.03
2022-10-26T22:29:21.258Z,13.00
2022-10-26T22:31:47.784Z,12.96
2022-10-26T22:34:16.577Z,12.92
2022-10-26T22:36:44.083Z,12.87
2022-10-26T22:39:10.533Z,12.84
2022-10-26T22:41:37.013Z,12.82
2022-10-26T22:44:03.795Z,12.80
2022-10-26T22:46:30.182Z,12.79
2022-10-26T22:48:59.703Z,12.78
2022-10-26T22:51:29.095Z,12.78
2022-10-26T22:53:57.834Z,12.77
2022-10-26T22:58:57.489Z,12.74
2022-10-26T23:01:28.064Z,12.74
2022-10-26T23:03:56.279Z,12.73
2022-10-26T23:06:25.028Z,12.73
2022-10-26T23:08:51.662Z,12.70
2022-10-26T23:11:20.613Z,12.68
2022-10-26T23:13:47.540Z,12.65
2022-10-26T23:16:16.532Z,12.61
2022-10-26T23:18:42.902Z,12.59
2022-10-26T23:21:11.025Z,12.59
2022-10-26T23:23:37.786Z,12.59
2022-10-26T23:26:07.183Z,12.58
2022-10-26T23:28:34.994Z,12.58
2022-10-26T23:31:01.901Z,12.58
2022-10-26T23:33:28.305Z,12.57
2022-10-26T23:35:54.887Z,12.56
2022-10-26T23:38:21.647Z,12.56
2022-10-26T23:40:49.896Z,12.56
2022-10-26T23:43:16.298Z,12.55
2022-10-26T23:45:42.688Z,12.54
2022-10-26T23:48:09.126Z,12.54
2022-10-26T23:50:35.510Z,12.53
2022-10-26T23:53:01.876Z,12.53
2022-10-26T23:55:28.249Z,12.52
2022-10-26T23:57:54.648Z,12.52
